createdAt,value
2024-04-15T00:00:34.043Z,4.30
2024-04-15T00:03:02.478Z,4.70
2024-04-15T00:05:28.871Z,4.82
2024-04-15T00:07:57.283Z,4.65
2024-04-15T00:10:24.247Z,3.92
2024-04-15T00:12:53.364Z,3.97
2024-04-15T00:15:20.207Z,4.18
2024-04-15T00:17:52.381Z,4.10
2024-04-15T00:20:18.704Z,3.88
2024-04-15T00:22:47.054Z,4.00
2024-04-15T00:25:13.704Z,3.47
2024-04-15T00:27:42.181Z,3.67
2024-04-15T00:30:09.406Z,3.67
2024-04-15T00:32:37.930Z,4.03
2024-04-15T00:35:06.672Z,3.65
2024-04-15T00:37:35.061Z,3.80
2024-04-15T00:40:01.486Z,3.50
2024-04-15T00:42:29.922Z,3.33
2024-04-15T00:44:56.260Z,3.47
2024-04-15T00:47:24.672Z,3.85
2024-04-15T00:49:52.167Z,3.42
2024-04-15T00:52:23.331Z,3.25
2024-04-15T00:54:50.551Z,3.63
2024-04-15T00:57:19.213Z,3.20
2024-04-15T00:59:47.864Z,3.30
2024-04-15T01:02:16.489Z,3.40
2024-04-15T01:04:43.113Z,3.47
2024-04-15T01:07:11.756Z,3.60
2024-04-15T01:09:40.212Z,3.10
2024-04-15T01:12:09.125Z,3.10
2024-04-15T01:14:35.447Z,3.20
2024-04-15T01:17:03.813Z,3.30
2024-04-15T01:19:30.203Z,3.50
2024-04-15T01:21:58.620Z,3.85
2024-04-15T01:24:27.167Z,3.25
2024-04-15T01:26:55.540Z,3.22
2024-04-15T01:29:21.976Z,3.30
2024-04-15T01:31:50.498Z,3.20
2024-04-15T01:34:16.869Z,3.35
2024-04-15T01:36:45.324Z,3.20
2024-04-15T01:39:11.733Z,3.00
2024-04-15T01:41:42.502Z,3.40
2024-04-15T01:44:08.823Z,3.08
2024-04-15T01:46:37.223Z,2.90
2024-04-15T01:49:03.652Z,3.22
2024-04-15T01:51:32.638Z,2.97
2024-04-15T01:53:59.464Z,2.78
2024-04-15T01:56:27.942Z,3.30
2024-04-15T01:58:56.461Z,3.15
2024-04-15T02:01:24.953Z,3.53
2024-04-15T02:03:51.356Z,3.10
2024-04-15T02:06:19.866Z,2.90
2024-04-15T02:08:46.212Z,3.00
2024-04-15T02:11:14.607Z,3.30
2024-04-15T02:13:40.959Z,2.75
2024-04-15T02:16:11.511Z,2.92
2024-04-15T02:18:38.030Z,3.10
2024-04-15T02:21:08.171Z,3.17
2024-04-15T02:23:34.562Z,3.13
2024-04-15T02:26:02.943Z,3.45
2024-04-15T02:28:29.354Z,2.60
2024-04-15T02:30:57.711Z,3.05
2024-04-15T02:33:26.145Z,3.10
2024-04-15T02:35:54.548Z,2.83
2024-04-15T02:38:20.897Z,2.75
2024-04-15T02:40:51.484Z,3.30
2024-04-15T02:43:17.882Z,3.33
2024-04-15T02:45:47.683Z,2.92
2024-04-15T02:48:14.137Z,3.47
2024-04-15T02:50:44.608Z,3.03
2024-04-15T02:53:13.793Z,3.03
2024-04-15T02:55:44.174Z,3.05
2024-04-15T02:58:10.538Z,3.00
2024-04-15T03:00:38.949Z,2.90
2024-04-15T03:03:07.077Z,2.83
2024-04-15T03:05:37.740Z,2.70
2024-04-15T03:08:06.525Z,3.22
2024-04-15T03:10:34.956Z,2.60
2024-04-15T03:13:01.441Z,2.90
2024-04-15T03:15:30.472Z,2.75
2024-04-15T03:17:56.949Z,2.45
2024-04-15T03:20:28.725Z,2.58
2024-04-15T03:22:55.650Z,2.97
2024-04-15T03:25:26.056Z,3.15
2024-04-15T03:27:52.563Z,2.85
2024-04-15T03:30:21.070Z,3.08
2024-04-15T03:32:47.497Z,2.97
2024-04-15T03:35:16.912Z,2.75
2024-04-15T03:37:48.037Z,2.92
2024-04-15T03:40:16.624Z,2.63
2024-04-15T03:42:47.194Z,2.42
2024-04-15T03:45:13.630Z,2.47
2024-04-15T03:47:42.197Z,2.60
2024-04-15T03:50:08.755Z,2.72
2024-04-15T03:52:37.180Z,2.60
2024-04-15T03:55:04.250Z,2.70
2024-04-15T03:57:32.686Z,2.92
2024-04-15T04:00:01.077Z,2.67
2024-04-15T04:02:29.467Z,2.70
2024-04-15T04:04:55.861Z,2.75
2024-04-15T04:07:24.285Z,2.65
2024-04-15T04:09:50.697Z,2.85
2024-04-15T04:12:19.873Z,3.20
2024-04-15T04:14:46.229Z,2.97
2024-04-15T04:17:17.012Z,3.22
2024-04-15T04:19:43.384Z,2.85
2024-04-15T04:22:14.589Z,3.00
2024-04-15T04:24:40.992Z,3.28
2024-04-15T04:27:09.433Z,3.67
2024-04-15T04:29:35.892Z,3.97
2024-04-15T04:32:05.993Z,3.80
2024-04-15T04:34:38.780Z,3.53
2024-04-15T04:37:05.377Z,3.40
2024-04-15T04:39:33.754Z,3.63
2024-04-15T04:42:00.106Z,3.55
2024-04-15T04:44:28.508Z,3.80
2024-04-15T04:46:54.943Z,3.95
2024-04-15T04:49:23.507Z,3.63
2024-04-15T04:51:52.364Z,3.40
2024-04-15T04:54:20.791Z,3.60
2024-04-15T04:56:48.314Z,4.05
2024-04-15T04:59:16.690Z,3.40
2024-04-15T05:01:43.246Z,3.83
2024-04-15T05:04:11.809Z,3.50
2024-04-15T05:06:38.340Z,3.97
2024-04-15T05:09:11.342Z,3.92
2024-04-15T05:11:38.509Z,4.40
2024-04-15T05:14:06.926Z,3.72
2024-04-15T05:16:36.121Z,3.60
2024-04-15T05:19:04.654Z,4.18
2024-04-15T05:21:33.419Z,3.95
2024-04-15T05:24:02.125Z,4.15
2024-04-15T05:26:30.533Z,4.10
2024-04-15T05:28:59.275Z,4.22
2024-04-15T05:31:25.702Z,3.80
2024-04-15T05:33:54.229Z,4.00
2024-04-15T05:36:20.944Z,4.05
2024-04-15T05:38:49.391Z,4.38
2024-04-15T05:41:15.754Z,4.68
2024-04-15T05:43:46.208Z,4.05
2024-04-15T05:46:12.666Z,4.40
2024-04-15T05:48:41.882Z,4.28
2024-04-15T05:51:08.313Z,4.32
2024-04-15T05:53:36.764Z,4.18
2024-04-15T05:56:03.459Z,4.18
2024-04-15T05:58:31.955Z,4.10
2024-04-15T06:01:00.541Z,4.28
2024-04-15T06:03:29.710Z,4.35
2024-04-15T06:05:56.110Z,4.10
2024-04-15T06:08:24.731Z,4.00
2024-04-15T06:10:51.381Z,4.05
2024-04-15T06:13:21.088Z,4.13
2024-04-15T06:15:48.507Z,4.70
2024-04-15T06:18:19.296Z,4.53
2024-04-15T06:20:45.694Z,4.53
2024-04-15T06:23:14.146Z,4.63
2024-04-15T06:25:40.538Z,4.03
2024-04-15T06:28:09.092Z,4.43
2024-04-15T06:30:36.422Z,4.25
2024-04-15T06:33:05.126Z,4.68
2024-04-15T06:35:33.641Z,4.75
2024-04-15T06:38:02.106Z,4.55
2024-04-15T06:40:29.852Z,5.15
2024-04-15T06:42:58.313Z,4.68
2024-04-15T06:45:24.770Z,4.55
2024-04-15T06:47:54.320Z,4.57
2024-04-15T06:50:20.680Z,4.78
2024-04-15T06:52:51.217Z,4.72
2024-04-15T06:55:17.695Z,4.82
2024-04-15T06:57:46.185Z,4.45
2024-04-15T07:00:13.506Z,5.20
2024-04-15T07:02:41.976Z,5.20
2024-04-15T07:05:09.218Z,5.30
2024-04-15T07:07:37.669Z,5.68
2024-04-15T07:10:07.338Z,5.03
2024-04-15T07:12:35.883Z,5.30
2024-04-15T07:15:02.292Z,5.65
2024-04-15T07:17:30.746Z,5.38
2024-04-15T07:19:57.175Z,5.63
2024-04-15T07:22:25.718Z,5.68
2024-04-15T07:24:52.150Z,5.30
2024-04-15T07:27:22.933Z,5.72
2024-04-15T07:29:49.331Z,5.05
2024-04-15T07:32:18.122Z,5.07
2024-04-15T07:34:44.695Z,5.22
2024-04-15T07:37:13.294Z,4.97
2024-04-15T07:39:39.698Z,5.22
2024-04-15T07:42:09.027Z,5.22
2024-04-15T07:44:37.652Z,5.05
2024-04-15T07:47:06.496Z,5.18
2024-04-15T07:49:33.831Z,5.03
2024-04-15T07:52:04.230Z,5.03
2024-04-15T07:54:30.872Z,4.90
2024-04-15T07:56:59.267Z,4.45
2024-04-15T07:59:27.730Z,5.03
2024-04-15T08:01:56.391Z,6.20
2024-04-15T08:04:25.048Z,4.93
2024-04-15T08:07:00.150Z,5.65
2024-04-15T08:09:35.608Z,4.70
2024-04-15T08:12:02.020Z,5.13
2024-04-15T08:14:30.501Z,5.68
2024-04-15T08:16:59.026Z,5.38
2024-04-15T08:19:31.264Z,5.63
2024-04-15T08:21:58.442Z,4.95
2024-04-15T08:24:26.853Z,5.28
2024-04-15T08:26:53.279Z,5.30
2024-04-15T08:29:21.690Z,4.85
2024-04-15T08:31:48.123Z,4.80
2024-04-15T08:34:18.567Z,5.07
2024-04-15T08:36:45.123Z,4.88
2024-04-15T08:39:13.526Z,5.13
2024-04-15T08:41:57.729Z,4.80
2024-04-15T08:44:35.630Z,4.95
2024-04-15T08:47:10.382Z,4.57
2024-04-15T08:49:41.241Z,5.78
2024-04-15T08:52:10.704Z,5.70
2024-04-15T08:54:40.873Z,5.63
2024-04-15T08:57:09.329Z,6.00
2024-04-15T08:59:41.290Z,6.47
2024-04-15T09:02:07.919Z,6.18
2024-04-15T09:04:36.722Z,7.43
2024-04-15T09:07:05.485Z,6.78
2024-04-15T09:09:33.956Z,7.07
2024-04-15T09:12:00.919Z,7.38
2024-04-15T09:14:29.357Z,6.70
2024-04-15T09:16:56.090Z,6.90
2024-04-15T09:19:25.878Z,7.53
2024-04-15T09:21:54.357Z,6.55
2024-04-15T09:24:22.904Z,7.50
2024-04-15T09:26:53.411Z,8.18
2024-04-15T09:29:19.823Z,8.60
2024-04-15T09:31:48.344Z,8.65
2024-04-15T09:34:15.929Z,8.05
2024-04-15T09:36:47.815Z,7.85
2024-04-15T09:39:14.551Z,8.48
2024-04-15T09:41:45.265Z,8.98
2024-04-15T09:44:13.143Z,8.75
2024-04-15T09:46:46.360Z,9.93
2024-04-15T09:49:14.135Z,9.98
2024-04-15T09:51:44.534Z,10.25
2024-04-15T09:54:15.765Z,10.55
2024-04-15T09:56:51.027Z,9.35
2024-04-15T09:59:18.252Z,9.60
2024-04-15T10:01:50.242Z,10.85
2024-04-15T10:04:21.447Z,10.82
2024-04-15T10:06:52.343Z,10.27
2024-04-15T10:09:19.191Z,10.95
2024-04-15T10:11:52.127Z,11.43
2024-04-15T10:14:19.665Z,11.15
2024-04-15T10:16:49.537Z,11.73
2024-04-15T10:19:23.794Z,11.15
2024-04-15T10:21:52.358Z,12.40
2024-04-15T10:24:18.804Z,11.60
2024-04-15T10:26:49.458Z,8.52
2024-04-15T10:29:18.444Z,8.80
2024-04-15T10:31:52.647Z,8.55
2024-04-15T10:34:22.317Z,10.25
2024-04-15T10:36:52.008Z,10.63
2024-04-15T10:39:19.093Z,7.72
2024-04-15T10:41:50.706Z,5.93
2024-04-15T10:44:17.091Z,6.65
2024-04-15T10:46:46.921Z,7.32
2024-04-15T10:49:14.919Z,7.72
2024-04-15T10:51:43.542Z,6.82
2024-04-15T10:54:10.032Z,8.23
2024-04-15T10:56:38.502Z,8.23
2024-04-15T10:59:07.061Z,9.15
2024-04-15T11:01:35.595Z,8.32
2024-04-15T11:04:06.383Z,9.02
2024-04-15T11:06:36.366Z,9.55
2024-04-15T11:09:04.576Z,9.20
2024-04-15T11:11:34.322Z,9.35
2024-04-15T11:14:01.207Z,9.82
2024-04-15T11:16:31.778Z,9.40
2024-04-15T11:19:05.768Z,8.57
2024-04-15T11:21:34.705Z,8.57
2024-04-15T11:24:01.287Z,7.85
2024-04-15T11:26:37.073Z,8.10
2024-04-15T11:29:08.986Z,7.57
2024-04-15T11:31:42.062Z,8.23
2024-04-15T11:34:08.597Z,8.18
2024-04-15T11:36:41.064Z,7.80
2024-04-15T11:39:07.689Z,8.00
2024-04-15T11:41:36.378Z,8.20
2024-04-15T11:44:03.020Z,8.23
2024-04-15T11:46:31.844Z,8.93
2024-04-15T11:49:02.303Z,8.82
2024-04-15T11:51:31.432Z,9.63
2024-04-15T11:53:57.815Z,8.80
2024-04-15T11:56:26.261Z,8.77
2024-04-15T11:58:52.745Z,8.25
2024-04-15T12:01:21.361Z,8.32
2024-04-15T12:03:48.257Z,8.02
2024-04-15T12:06:21.435Z,8.10
2024-04-15T12:08:47.868Z,8.18
2024-04-15T12:11:18.818Z,8.65
2024-04-15T12:13:45.212Z,8.30
2024-04-15T12:16:13.756Z,8.10
2024-04-15T12:18:40.271Z,7.88
2024-04-15T12:21:10.284Z,8.40
2024-04-15T12:23:41.648Z,8.68
2024-04-15T12:26:10.111Z,8.70
2024-04-15T12:28:36.599Z,9.15
2024-04-15T12:31:05.281Z,9.77
2024-04-15T12:33:35.036Z,8.20
2024-04-15T12:36:05.895Z,6.53
2024-04-15T12:38:32.398Z,4.97
2024-04-15T12:41:03.051Z,5.40
2024-04-15T12:43:29.503Z,4.82
2024-04-15T12:45:57.972Z,5.00
2024-04-15T12:48:24.493Z,5.05
2024-04-15T12:50:56.701Z,4.50
2024-04-15T12:53:23.100Z,4.85
2024-04-15T12:55:51.542Z,4.38
2024-04-15T12:58:20.250Z,4.47
2024-04-15T13:00:48.723Z,4.25
2024-04-15T13:03:15.196Z,5.15
2024-04-15T13:05:43.748Z,5.78
2024-04-15T13:08:10.345Z,5.07
2024-04-15T13:10:39.253Z,4.50
2024-04-15T13:13:08.125Z,4.93
2024-04-15T13:15:36.575Z,4.82
2024-04-15T13:18:05.337Z,4.70
2024-04-15T13:20:31.841Z,4.78
2024-04-15T13:23:03.471Z,4.47
2024-04-15T13:25:30.748Z,4.30
2024-04-15T13:27:59.872Z,4.13
2024-04-15T13:30:26.848Z,4.68
2024-04-15T13:32:57.756Z,4.72
2024-04-15T13:35:24.578Z,4.38
2024-04-15T13:37:53.218Z,4.40
2024-04-15T13:40:19.866Z,4.43
2024-04-15T13:42:48.664Z,3.92
2024-04-15T13:45:15.519Z,4.78
2024-04-15T13:47:45.809Z,4.90
2024-04-15T13:50:15.742Z,4.13
2024-04-15T13:52:44.186Z,4.22
2024-04-15T13:55:10.712Z,4.65
2024-04-15T13:57:39.400Z,4.15
2024-04-15T14:00:09.151Z,4.20
2024-04-15T14:02:35.891Z,4.03
2024-04-15T14:05:04.514Z,4.85
2024-04-15T14:07:36.259Z,4.25
2024-04-15T14:10:04.938Z,4.97
2024-04-15T14:12:33.149Z,4.97
2024-04-15T14:15:02.231Z,5.20
2024-04-15T14:17:28.925Z,5.05
2024-04-15T14:19:58.733Z,4.50
2024-04-15T14:22:25.767Z,4.72
2024-04-15T14:24:56.255Z,4.93
2024-04-15T14:27:22.805Z,4.40
2024-04-15T14:29:51.218Z,4.32
2024-04-15T14:32:17.678Z,4.53
2024-04-15T14:34:47.629Z,4.30
2024-04-15T14:37:15.711Z,4.85
2024-04-15T14:39:44.215Z,4.30
2024-04-15T14:42:13.101Z,4.90
2024-04-15T14:44:41.446Z,4.25
2024-04-15T14:47:08.292Z,4.40
2024-04-15T14:49:36.768Z,4.47
2024-04-15T14:52:04.255Z,4.05
2024-04-15T14:54:32.683Z,3.83
2024-04-15T14:57:01.511Z,4.47
2024-04-15T14:59:32.028Z,4.20
2024-04-15T15:01:59.498Z,3.65
2024-04-15T15:04:28.640Z,3.90
2024-04-15T15:06:55.058Z,3.72
2024-04-15T15:09:24.420Z,3.33
2024-04-15T15:11:50.775Z,3.75
2024-04-15T15:14:19.647Z,5.20
2024-04-15T15:16:48.172Z,5.20
2024-04-15T15:19:17.302Z,5.60
2024-04-15T15:21:44.002Z,3.75
2024-04-15T15:24:12.595Z,3.25
2024-04-15T15:26:39.946Z,3.28
2024-04-15T15:29:12.097Z,3.28
2024-04-15T15:31:39.280Z,3.70
2024-04-15T15:34:09.817Z,3.60
2024-04-15T15:36:36.349Z,3.42
2024-04-15T15:39:07.683Z,3.67
2024-04-15T15:41:34.721Z,3.72
2024-04-15T15:44:03.138Z,3.53
2024-04-15T15:46:29.660Z,4.03
2024-04-15T15:48:58.825Z,3.60
2024-04-15T15:51:27.760Z,3.60
2024-04-15T15:53:56.162Z,3.63
2024-04-15T15:56:22.509Z,3.30
2024-04-15T15:58:51.194Z,3.78
2024-04-15T16:01:17.815Z,3.90
2024-04-15T16:03:46.967Z,3.20
2024-04-15T16:06:13.399Z,3.15
2024-04-15T16:08:44.015Z,3.45
2024-04-15T16:11:11.412Z,3.10
2024-04-15T16:13:40.352Z,3.50
2024-04-15T16:16:09.260Z,3.38
2024-04-15T16:18:37.934Z,3.45
2024-04-15T16:21:04.618Z,3.40
2024-04-15T16:23:33.064Z,3.53
2024-04-15T16:26:01.462Z,3.38
2024-04-15T16:28:30.005Z,3.35
2024-04-15T16:30:56.386Z,3.33
2024-04-15T16:33:24.949Z,3.63
2024-04-15T16:35:51.401Z,3.17
2024-04-15T16:38:19.792Z,3.75
2024-04-15T16:40:48.916Z,3.25
2024-04-15T16:43:19.976Z,3.55
2024-04-15T16:45:46.383Z,3.53
2024-04-15T16:48:14.998Z,3.22
2024-04-15T16:50:41.337Z,3.15
2024-04-15T16:53:09.755Z,4.03
2024-04-15T16:55:36.277Z,3.60
2024-04-15T16:58:06.208Z,3.15
2024-04-15T17:00:35.086Z,3.88
2024-04-15T17:03:03.782Z,3.50
2024-04-15T17:05:30.251Z,3.90
2024-04-15T17:07:58.724Z,3.72
2024-04-15T17:10:27.735Z,3.55
2024-04-15T17:12:56.289Z,3.65
2024-04-15T17:15:22.736Z,3.70
2024-04-15T17:17:53.547Z,3.28
2024-04-15T17:20:20.171Z,3.50
2024-04-15T17:22:51.062Z,4.10
2024-04-15T17:25:17.700Z,3.38
2024-04-15T17:27:46.661Z,3.60
2024-04-15T17:30:13.267Z,3.63
2024-04-15T17:32:41.828Z,3.83
2024-04-15T17:35:13.359Z,3.80
2024-04-15T17:37:41.852Z,3.55
2024-04-15T17:40:09.474Z,4.18
2024-04-15T17:42:37.890Z,3.63
2024-04-15T17:45:07.515Z,3.78
2024-04-15T17:47:35.999Z,3.70
2024-04-15T17:50:02.489Z,3.63
2024-04-15T17:52:32.975Z,3.75
2024-04-15T17:54:59.571Z,3.53
2024-04-15T17:57:28.085Z,3.72
2024-04-15T17:59:54.397Z,3.65
2024-04-15T18:02:22.777Z,3.30
2024-04-15T18:04:49.370Z,4.00
2024-04-15T18:07:20.966Z,3.40
2024-04-15T18:09:49.402Z,3.90
2024-04-15T18:12:17.732Z,3.60
2024-04-15T18:14:44.543Z,3.10
2024-04-15T18:17:13.106Z,3.20
2024-04-15T18:19:39.681Z,3.65
2024-04-15T18:22:10.742Z,3.55
2024-04-15T18:24:37.132Z,3.00
2024-04-15T18:27:07.773Z,2.92
2024-04-15T18:29:34.262Z,2.83
2024-04-15T18:32:02.717Z,2.90
2024-04-15T18:34:29.348Z,3.60
2024-04-15T18:36:58.000Z,3.15
2024-04-15T18:39:24.515Z,3.10
2024-04-15T18:41:53.622Z,2.80
2024-04-15T18:44:23.149Z,3.30
2024-04-15T18:46:51.551Z,3.28
2024-04-15T18:49:19.165Z,3.00
2024-04-15T18:51:47.598Z,2.90
2024-04-15T18:54:14.038Z,2.90
2024-04-15T18:56:42.599Z,2.92
2024-04-15T18:59:09.212Z,2.90
2024-04-15T19:01:39.690Z,2.97
2024-04-15T19:04:06.284Z,2.78
2024-04-15T19:06:34.932Z,2.78
2024-04-15T19:09:01.314Z,2.53
2024-04-15T19:11:29.746Z,2.67
2024-04-15T19:13:56.138Z,2.40
2024-04-15T19:16:24.612Z,2.10
2024-04-15T19:18:53.078Z,2.30
2024-04-15T19:21:21.498Z,1.58
2024-04-15T19:23:48.047Z,2.00
2024-04-15T19:26:16.606Z,2.50
2024-04-15T19:28:44.012Z,2.15
2024-04-15T19:31:22.916Z,1.55
2024-04-15T19:33:58.312Z,2.10
2024-04-15T19:36:26.934Z,1.58
2024-04-15T19:38:53.368Z,1.70
2024-04-15T19:41:21.844Z,1.77
2024-04-15T19:43:48.300Z,1.67
2024-04-15T19:46:16.946Z,1.83
2024-04-15T19:48:43.453Z,1.80
2024-04-15T19:51:13.949Z,1.35
2024-04-15T19:53:40.500Z,1.95
2024-04-15T19:56:09.110Z,1.30
2024-04-15T19:58:35.640Z,1.40
2024-04-15T20:01:04.212Z,1.50
2024-04-15T20:03:30.748Z,1.58
2024-04-15T20:05:59.428Z,1.52
2024-04-15T20:08:30.346Z,1.60
2024-04-15T20:10:58.907Z,1.98
2024-04-15T20:13:25.618Z,1.38
2024-04-15T20:15:54.180Z,1.25
2024-04-15T20:18:34.465Z,1.30
2024-04-15T20:21:03.298Z,1.70
2024-04-15T20:23:33.343Z,1.40
2024-04-15T20:26:01.827Z,1.73
2024-04-15T20:28:28.314Z,1.40
2024-04-15T20:30:56.764Z,1.60
2024-04-15T20:33:23.275Z,1.63
2024-04-15T20:35:51.855Z,1.73
2024-04-15T20:38:18.204Z,1.40
2024-04-15T20:40:48.718Z,1.48
2024-04-15T20:43:15.297Z,1.25
2024-04-15T20:45:43.775Z,1.38
2024-04-15T20:48:10.302Z,1.38
2024-04-15T20:50:38.825Z,1.30
2024-04-15T20:53:05.574Z,1.20
2024-04-15T20:55:34.171Z,1.50
2024-04-15T20:58:02.817Z,1.40
2024-04-15T21:00:31.241Z,1.20
2024-04-15T21:02:58.104Z,1.80
2024-04-15T21:05:26.548Z,1.75
2024-04-15T21:07:53.263Z,1.73
2024-04-15T21:10:23.303Z,1.30
2024-04-15T21:12:49.918Z,1.70
2024-04-15T21:15:21.434Z,1.73
2024-04-15T21:17:47.866Z,1.85
2024-04-15T21:20:16.347Z,1.52
2024-04-15T21:22:42.868Z,1.40
2024-04-15T21:25:12.029Z,1.63
2024-04-15T21:27:38.393Z,1.70
2024-04-15T21:30:08.211Z,1.45
2024-04-15T21:32:36.719Z,1.58
2024-04-15T21:35:05.359Z,1.50
2024-04-15T21:37:31.833Z,1.50
2024-04-15T21:40:00.426Z,1.45
2024-04-15T21:42:26.847Z,1.42
2024-04-15T21:44:55.300Z,1.50
2024-04-15T21:47:21.989Z,1.52
2024-04-15T21:49:54.895Z,1.70
2024-04-15T21:52:24.630Z,1.42
2024-04-15T21:54:53.047Z,1.45
2024-04-15T21:57:19.440Z,1.35
2024-04-15T21:59:48.811Z,1.67
2024-04-15T22:02:15.247Z,1.50
2024-04-15T22:04:53.392Z,1.45
2024-04-15T22:07:29.023Z,1.55
2024-04-15T22:09:57.655Z,1.10
2024-04-15T22:12:24.190Z,1.60
2024-04-15T22:14:52.720Z,1.40
2024-04-15T22:17:19.154Z,1.30
2024-04-15T22:19:47.657Z,1.05
2024-04-15T22:22:14.092Z,1.60
2024-04-15T22:24:44.542Z,1.27
2024-04-15T22:27:10.945Z,1.20
2024-04-15T22:29:39.364Z,1.40
2024-04-15T22:32:05.739Z,1.13
2024-04-15T22:34:34.214Z,1.40
2024-04-15T22:37:00.625Z,1.30
2024-04-15T22:39:29.467Z,1.13
2024-04-15T22:41:58.367Z,1.42
2024-04-15T22:44:26.777Z,0.85
2024-04-15T22:46:53.136Z,0.55
2024-04-15T22:49:22.736Z,0.68
2024-04-15T22:51:49.088Z,0.50
2024-04-15T22:54:18.863Z,0.60
2024-04-15T22:56:46.345Z,0.70
2024-04-15T22:59:16.757Z,0.60
2024-04-15T23:01:43.198Z,0.60
2024-04-15T23:04:11.838Z,0.70
2024-04-15T23:06:38.238Z,0.50
2024-04-15T23:09:07.191Z,0.40
2024-04-15T23:11:36.191Z,0.50
2024-04-15T23:14:04.649Z,0.50
2024-04-15T23:16:33.156Z,0.50
2024-04-15T23:19:01.703Z,0.40
2024-04-15T23:21:28.073Z,0.40
2024-04-15T23:23:56.492Z,0.65
2024-04-15T23:26:22.883Z,0.50
2024-04-15T23:28:51.810Z,0.30
2024-04-15T23:31:18.169Z,0.43
2024-04-15T23:33:49.027Z,0.43
2024-04-15T23:36:15.429Z,0.50
2024-04-15T23:38:43.908Z,0.40
2024-04-15T23:41:10.266Z,0.77
2024-04-15T23:43:38.702Z,0.30
2024-04-15T23:46:05.135Z,0.50
2024-04-15T23:48:33.575Z,0.50
2024-04-15T23:51:01.997Z,0.50
2024-04-15T23:53:30.396Z,0.60
2024-04-15T23:55:56.762Z,0.50
2024-04-15T23:58:27.634Z,0.52
